Time;durP1;ratioP1;P1;durP2;ratioP2;P2;SDS_P1;SDS_P2;PMS_P1;PMS_P2;Temp;Humidity;BMP_temperature;BMP_pressure;BME280_temperature;BME280_humidity;BME280_pressure;Samples;Min_cycle;Max_cycle;Signal;HPM_P1;HPM_P2
2021/01/01 00:00:33;;;;;;;1.25;0.80;;;19.70;52.60;;;;;;5030928;28;20029;-60
2021/01/01 00:03:00;;;;;;;0.70;0.60;;;19.70;52.60;;;;;;5027074;28;20037;-58
2021/01/01 00:05:29;;;;;;;1.40;0.80;;;19.70;52.60;;;;;;5026649;28;20560;-61
2021/01/01 00:07:55;;;;;;;1.13;0.80;;;19.70;52.60;;;;;;5028494;28;20541;-55
2021/01/01 00:10:21;;;;;;;0.98;0.73;;;19.60;52.60;;;;;;5042513;28;20191;-60
2021/01/01 00:12:47;;;;;;;1.58;0.80;;;19.70;52.60;;;;;;5035518;28;20034;-60
2021/01/01 00:15:13;;;;;;;1.23;0.80;;;19.60;52.60;;;;;;5033851;28;20037;-54
2021/01/01 00:17:39;;;;;;;1.35;0.68;;;19.60;52.50;;;;;;5030558;28;20029;-60
2021/01/01 00:20:08;;;;;;;1.70;0.90;;;19.60;53.10;;;;;;5029287;28;20484;-60
2021/01/01 00:22:33;;;;;;;1.38;0.73;;;19.60;52.60;;;;;;5034170;28;20030;-60
2021/01/01 00:24:59;;;;;;;1.45;0.80;;;19.60;52.60;;;;;;5028372;28;20112;-58
2021/01/01 00:27:28;;;;;;;1.50;0.90;;;19.60;52.50;;;;;;5039123;28;20100;-59
2021/01/01 00:29:55;;;;;;;1.20;0.85;;;19.60;52.60;;;;;;5029301;28;20111;-61
2021/01/01 00:32:20;;;;;;;1.27;0.90;;;19.60;52.60;;;;;;5028420;28;20056;-57
2021/01/01 00:34:46;;;;;;;1.20;0.80;;;19.60;52.60;;;;;;5028434;28;20029;-55
2021/01/01 00:37:12;;;;;;;1.00;0.80;;;19.60;52.60;;;;;;5028260;28;20444;-56
2021/01/01 00:39:37;;;;;;;0.90;0.65;;;19.60;52.60;;;;;;5030329;28;20038;-60
2021/01/01 00:42:04;;;;;;;1.55;0.90;;;19.60;52.60;;;;;;5039829;28;20037;-59
2021/01/01 00:44:31;;;;;;;1.17;0.80;;;19.60;52.60;;;;;;5029493;28;20041;-60
2021/01/01 00:46:56;;;;;;;1.23;0.75;;;19.60;52.60;;;;;;5027560;28;20036;-61
2021/01/01 00:49:22;;;;;;;0.88;0.77;;;19.60;52.60;;;;;;5034961;28;20118;-59
2021/01/01 00:51:48;;;;;;;1.00;0.70;;;19.60;52.60;;;;;;5033488;28;20056;-55
2021/01/01 00:54:14;;;;;;;1.23;0.85;;;19.60;52.60;;;;;;5048297;28;20064;-61
2021/01/01 00:56:40;;;;;;;2.10;0.90;;;19.60;52.70;;;;;;5032279;28;20029;-58
2021/01/01 00:59:06;;;;;;;1.17;0.90;;;19.60;52.60;;;;;;5038784;28;20021;-59
2021/01/01 01:01:32;;;;;;;1.58;0.73;;;19.60;52.60;;;;;;5037098;28;20056;-61
2021/01/01 01:03:58;;;;;;;1.67;0.90;;;19.60;52.60;;;;;;5027868;28;20039;-61
2021/01/01 01:06:24;;;;;;;1.20;0.70;;;19.60;52.60;;;;;;5034117;28;20064;-61
2021/01/01 01:08:50;;;;;;;1.20;0.80;;;19.60;52.60;;;;;;5043217;28;20675;-56
2021/01/01 01:11:24;;;;;;;0.80;0.60;;;19.60;52.60;;;;;;5032211;28;20028;-60
2021/01/01 01:13:50;;;;;;;1.35;0.80;;;19.60;52.70;;;;;;5026063;28;20151;-55
2021/01/01 01:16:21;;;;;;;0.90;0.65;;;19.60;52.60;;;;;;5026805;28;20056;-58
2021/01/01 01:18:46;;;;;;;1.05;0.80;;;19.50;52.60;;;;;;5029790;28;20418;-60
2021/01/01 01:21:12;;;;;;;1.27;0.90;;;19.60;52.60;;;;;;5027938;28;20083;-58
2021/01/01 01:23:37;;;;;;;1.23;0.80;;;19.60;52.60;;;;;;5039283;28;20416;-62
2021/01/01 01:26:03;;;;;;;1.42;0.80;;;19.60;52.60;;;;;;5027599;28;20037;-58
2021/01/01 01:28:28;;;;;;;1.30;0.90;;;19.50;52.50;;;;;;5027317;28;20068;-59
2021/01/01 01:30:54;;;;;;;1.92;0.80;;;19.60;52.70;;;;;;5032139;28;20466;-59
2021/01/01 01:33:20;;;;;;;1.00;0.85;;;19.50;52.60;;;;;;5026982;28;20037;-59
2021/01/01 01:35:45;;;;;;;1.45;0.90;;;19.60;52.60;;;;;;5028322;28;20037;-59
2021/01/01 01:38:11;;;;;;;1.23;0.77;;;19.60;52.70;;;;;;5044728;28;20515;-61
2021/01/01 01:40:37;;;;;;;1.33;0.77;;;19.50;52.60;;;;;;5030553;28;20104;-58
2021/01/01 01:43:02;;;;;;;1.33;0.80;;;19.50;52.60;;;;;;5029669;28;20052;-57
2021/01/01 01:45:28;;;;;;;1.15;0.80;;;19.50;52.60;;;;;;5029949;28;20025;-63
2021/01/01 01:47:54;;;;;;;1.05;0.80;;;19.50;52.60;;;;;;5026249;28;20479;-60
2021/01/01 01:50:20;;;;;;;1.63;0.85;;;19.50;52.60;;;;;;5028160;28;20130;-58
2021/01/01 01:52:47;;;;;;;2.00;0.90;;;19.50;52.60;;;;;;5035299;28;20091;-58
2021/01/01 01:55:13;;;;;;;1.10;0.82;;;19.50;52.60;;;;;;5040785;28;20097;-61
2021/01/01 01:57:39;;;;;;;1.00;0.70;;;19.50;52.60;;;;;;5027876;28;20025;-58
2021/01/01 02:02:53;;;;;;;0.95;0.70;;;19.50;52.60;;;;;;5029909;28;20575;-57
2021/01/01 02:05:19;;;;;;;1.20;0.77;;;19.50;52.60;;;;;;5027612;28;20558;-61
2021/01/01 02:07:45;;;;;;;1.73;1.00;;;19.50;52.60;;;;;;5031178;28;20101;-60
2021/01/01 02:10:12;;;;;;;1.30;0.90;;;19.50;52.60;;;;;;5040251;28;20028;-59
2021/01/01 02:12:38;;;;;;;1.38;0.90;;;19.50;52.60;;;;;;5038244;28;20037;-58
2021/01/01 02:15:04;;;;;;;1.35;0.90;;;19.50;52.60;;;;;;5027058;28;20135;-62
2021/01/01 02:17:30;;;;;;;0.95;0.70;;;19.50;52.60;;;;;;5030489;28;20412;-57
2021/01/01 02:20:07;;;;;;;1.38;0.90;;;19.50;52.70;;;;;;5026934;28;20066;-60
2021/01/01 02:22:39;;;;;;;1.38;0.80;;;19.50;52.60;;;;;;5036973;28;20513;-63
2021/01/01 02:25:07;;;;;;;1.75;0.98;;;19.40;52.60;;;;;;5026021;28;20427;-60
2021/01/01 02:27:33;;;;;;;1.73;0.85;;;19.50;52.60;;;;;;5026054;28;20041;-63
2021/01/01 02:29:59;;;;;;;0.95;0.82;;;19.50;52.60;;;;;;5030610;28;20431;-57
2021/01/01 02:32:24;;;;;;;1.08;0.80;;;19.50;52.70;;;;;;5036393;28;20099;-59
2021/01/01 02:34:50;;;;;;;1.13;0.82;;;19.40;52.60;;;;;;5029787;28;20029;-63
2021/01/01 02:37:16;;;;;;;1.35;1.00;;;19.40;52.60;;;;;;5028387;28;20632;-60
2021/01/01 02:39:42;;;;;;;1.00;0.75;;;19.40;52.60;;;;;;5041314;28;20353;-60
2021/01/01 02:42:08;;;;;;;1.60;0.98;;;19.40;52.60;;;;;;5023455;28;20028;-58
2021/01/01 02:44:33;;;;;;;1.15;0.80;;;19.40;52.60;;;;;;5033600;28;20404;-58
2021/01/01 02:47:03;;;;;;;1.23;0.80;;;19.40;52.60;;;;;;5041328;28;20124;-58
2021/01/01 02:49:29;;;;;;;;;;;19.40;52.60;;;;;;5031184;28;20029;-58
2021/01/01 02:51:55;;;;;;;1.23;0.90;;;19.40;52.60;;;;;;5035130;28;19920;-60
2021/01/01 02:54:20;;;;;;;1.30;0.90;;;19.40;52.60;;;;;;5036410;28;20082;-58
2021/01/01 02:56:46;;;;;;;1.00;0.82;;;19.40;52.60;;;;;;5038638;28;20033;-57
2021/01/01 02:59:12;;;;;;;1.30;0.90;;;19.40;52.60;;;;;;5037488;28;20064;-61
2021/01/01 03:01:38;;;;;;;1.77;0.90;;;19.40;52.60;;;;;;5033651;28;20523;-60
2021/01/01 03:04:03;;;;;;;1.40;1.02;;;19.40;52.60;;;;;;5036465;28;20160;-60
2021/01/01 03:06:29;;;;;;;1.30;0.80;;;19.40;52.70;;;;;;5042981;28;20044;-57
2021/01/01 03:08:55;;;;;;;1.67;0.93;;;19.40;52.70;;;;;;5027223;28;20425;-58
2021/01/01 03:11:20;;;;;;;1.27;0.90;;;19.40;52.60;;;;;;5026805;28;20029;-58
2021/01/01 03:13:46;;;;;;;1.10;0.73;;;19.40;52.60;;;;;;5046262;28;20100;-59
2021/01/01 03:16:12;;;;;;;1.00;0.80;;;19.40;52.60;;;;;;5036576;28;20104;-61
2021/01/01 03:18:37;;;;;;;1.45;0.90;;;19.40;52.60;;;;;;5026829;28;20113;-57
2021/01/01 03:21:04;;;;;;;1.10;0.98;;;19.40;52.70;;;;;;5031524;28;20033;-63
2021/01/01 03:23:29;;;;;;;1.00;0.80;;;19.40;52.60;;;;;;5027548;28;20092;-59
2021/01/01 03:25:55;;;;;;;1.17;0.80;;;19.40;52.60;;;;;;5042047;28;20056;-60
2021/01/01 03:28:20;;;;;;;1.17;0.90;;;19.40;52.60;;;;;;5037607;28;20037;-61
2021/01/01 03:30:46;;;;;;;1.85;0.93;;;19.40;52.60;;;;;;5036679;28;20025;-61
2021/01/01 03:33:12;;;;;;;1.60;0.90;;;19.40;52.70;;;;;;5037826;28;20028;-58
2021/01/01 03:35:37;;;;;;;1.60;0.93;;;19.40;52.60;;;;;;5038934;28;20112;-60
2021/01/01 03:38:03;;;;;;;1.17;0.88;;;19.30;52.60;;;;;;5034503;28;20322;-60
2021/01/01 03:40:29;;;;;;;1.63;1.00;;;19.40;52.70;;;;;;5041024;28;20029;-57
2021/01/01 03:42:54;;;;;;;1.40;1.00;;;19.30;52.60;;;;;;5029746;28;20550;-60
2021/01/01 03:45:20;;;;;;;1.02;0.77;;;19.30;52.60;;;;;;5031567;28;20165;-58
2021/01/01 03:47:46;;;;;;;1.30;0.90;;;19.30;52.70;;;;;;5036561;28;20033;-59
2021/01/01 03:50:12;;;;;;;1.05;0.80;;;19.30;52.60;;;;;;5026640;28;20431;-59
2021/01/01 03:52:37;;;;;;;1.15;0.80;;;19.30;52.60;;;;;;5035346;28;20058;-58
2021/01/01 03:55:03;;;;;;;1.52;0.90;;;19.30;52.60;;;;;;5030379;28;20168;-62
2021/01/01 03:57:29;;;;;;;1.50;0.85;;;19.30;52.60;;;;;;5040957;28;20057;-59
2021/01/01 03:59:54;;;;;;;1.27;0.93;;;19.30;52.60;;;;;;5029892;28;20057;-60
2021/01/01 04:02:20;;;;;;;1.60;1.00;;;19.30;52.60;;;;;;5029508;28;20029;-61
2021/01/01 04:04:46;;;;;;;1.30;0.80;;;19.30;52.60;;;;;;5029167;28;20026;-56
2021/01/01 04:07:12;;;;;;;1.42;0.95;;;19.30;52.60;;;;;;5029189;28;20025;-57
2021/01/01 04:09:37;;;;;;;1.30;1.00;;;19.30;52.60;;;;;;5040686;28;20028;-61
2021/01/01 04:12:03;;;;;;;1.35;0.82;;;19.30;52.60;;;;;;5032266;28;20081;-59
2021/01/01 04:14:28;;;;;;;1.65;1.00;;;19.30;52.60;;;;;;5040555;28;20024;-60
2021/01/01 04:16:54;;;;;;;1.17;0.88;;;19.30;52.60;;;;;;5038287;28;20104;-58
2021/01/01 04:19:20;;;;;;;1.35;0.90;;;19.30;52.60;;;;;;5039628;28;20461;-60
2021/01/01 04:21:49;;;;;;;1.45;1.00;;;19.30;52.60;;;;;;5024547;28;20037;-60
2021/01/01 04:24:16;;;;;;;1.30;1.00;;;19.30;52.60;;;;;;5029496;28;20029;-60
2021/01/01 04:26:42;;;;;;;1.70;1.13;;;19.30;52.60;;;;;;5036259;28;20040;-60
2021/01/01 04:29:08;;;;;;;1.88;0.80;;;19.30;52.60;;;;;;5030979;28;20593;-60
2021/01/01 04:31:37;;;;;;;1.27;0.90;;;19.30;52.60;;;;;;5029323;28;20148;-62
2021/01/01 04:34:03;;;;;;;1.23;0.80;;;19.30;52.60;;;;;;5028807;28;20107;-59
2021/01/01 04:36:29;;;;;;;1.45;0.93;;;19.30;52.60;;;;;;5028126;28;20050;-60
2021/01/01 04:38:55;;;;;;;1.30;0.90;;;19.30;52.60;;;;;;5046177;28;20025;-57
2021/01/01 04:41:21;;;;;;;1.52;0.90;;;19.30;52.70;;;;;;5041670;28;20029;-57
2021/01/01 04:43:49;;;;;;;1.52;1.08;;;19.30;52.60;;;;;;5030515;28;20321;-58
2021/01/01 04:46:15;;;;;;;1.40;0.90;;;19.30;52.70;;;;;;5029845;28;20511;-58
2021/01/01 04:48:45;;;;;;;1.20;0.77;;;19.30;52.70;;;;;;5025596;28;20092;-58
2021/01/01 04:51:12;;;;;;;1.02;0.80;;;19.30;52.70;;;;;;5037688;28;20052;-56
2021/01/01 04:53:39;;;;;;;1.27;0.90;;;19.30;52.70;;;;;;5029672;28;20500;-61
2021/01/01 04:56:05;;;;;;;1.40;0.90;;;19.20;52.60;;;;;;5027605;28;20484;-63
2021/01/01 04:58:31;;;;;;;1.20;0.90;;;19.20;52.60;;;;;;5028781;28;20017;-59
2021/01/01 05:00:57;;;;;;;1.45;0.98;;;19.30;52.70;;;;;;5028214;28;20037;-58
2021/01/01 05:03:23;;;;;;;1.17;0.88;;;19.30;53.20;;;;;;5036125;28;20562;-59
2021/01/01 05:05:50;;;;;;;1.15;0.90;;;19.20;52.60;;;;;;5044452;28;20076;-58
2021/01/01 05:08:17;;;;;;;1.30;0.90;;;19.20;52.60;;;;;;5026960;28;20029;-60
2021/01/01 05:10:43;;;;;;;1.77;0.93;;;19.20;52.60;;;;;;5027659;28;20060;-60
2021/01/01 05:13:13;;;;;;;2.28;0.90;;;19.20;52.70;;;;;;5036187;28;20029;-61
2021/01/01 05:15:40;;;;;;;1.40;1.00;;;19.20;52.60;;;;;;5044110;28;20064;-58
2021/01/01 05:18:23;;;;;;;1.05;0.80;;;19.20;52.60;;;;;;5038004;28;20133;-59
2021/01/01 05:20:51;;;;;;;1.20;0.80;;;19.20;52.60;;;;;;5027936;28;20041;-58
2021/01/01 05:23:28;;;;;;;1.08;0.80;;;19.20;52.60;;;;;;5031874;28;20457;-59
2021/01/01 05:26:13;;;;;;;1.10;0.80;;;19.20;52.60;;;;;;5027665;28;20045;-57
2021/01/01 05:28:48;;;;;;;1.50;1.00;;;19.20;52.60;;;;;;5026455;28;20081;-62
2021/01/01 05:31:30;;;;;;;1.17;0.75;;;19.20;52.60;;;;;;5035013;28;20033;-61
2021/01/01 05:34:00;;;;;;;1.27;0.82;;;19.20;52.60;;;;;;5025397;28;20029;-60
2021/01/01 05:36:31;;;;;;;1.50;0.98;;;19.20;52.70;;;;;;5027406;28;20029;-59
2021/01/01 05:38:59;;;;;;;1.45;0.80;;;19.20;52.60;;;;;;5027531;28;20224;-58
2021/01/01 05:41:29;;;;;;;1.45;1.02;;;19.20;52.70;;;;;;5027318;28;20033;-60
2021/01/01 05:44:15;;;;;;;1.50;1.00;;;19.20;52.70;;;;;;5029198;28;20491;-56
2021/01/01 05:46:53;;;;;;;0.88;0.80;;;19.20;52.70;;;;;;5038487;28;20136;-60
2021/01/01 05:49:19;;;;;;;0.77;0.70;;;19.20;52.70;;;;;;5026368;28;20029;-60
2021/01/01 05:52:01;;;;;;;1.10;0.80;;;19.20;52.70;;;;;;5034659;28;20511;-54
2021/01/01 05:54:27;;;;;;;1.40;0.90;;;19.20;52.70;;;;;;5038424;28;20029;-58
2021/01/01 05:56:55;;;;;;;1.13;0.80;;;19.20;52.70;;;;;;5041604;28;20415;-61
2021/01/01 05:59:23;;;;;;;1.20;0.90;;;19.20;52.70;;;;;;5026469;28;20035;-63
2021/01/01 06:01:55;;;;;;;1.13;0.90;;;19.20;52.70;;;;;;5028125;28;20033;-60
2021/01/01 06:04:23;;;;;;;1.25;0.90;;;19.20;52.70;;;;;;5032490;28;20092;-63
2021/01/01 06:06:52;;;;;;;0.98;0.82;;;19.20;52.70;;;;;;5031324;28;20651;-59
2021/01/01 06:09:21;;;;;;;1.73;1.00;;;19.10;52.60;;;;;;5043827;28;20061;-61
2021/01/01 06:12:08;;;;;;;1.50;0.90;;;19.20;52.70;;;;;;5027633;28;20061;-59
2021/01/01 06:14:35;;;;;;;1.00;0.80;;;19.20;52.70;;;;;;5026922;28;20445;-60
2021/01/01 06:17:16;;;;;;;1.20;1.00;;;19.10;52.60;;;;;;5041770;28;20025;-57
2021/01/01 06:19:42;;;;;;;1.70;0.90;;;19.10;52.60;;;;;;5039925;28;20037;-63
2021/01/01 06:22:13;;;;;;;1.63;0.98;;;19.10;52.70;;;;;;5030226;28;20091;-59
2021/01/01 06:24:45;;;;;;;0.93;0.70;;;19.10;52.60;;;;;;5030824;28;20096;-59
2021/01/01 06:27:12;;;;;;;1.45;1.00;;;19.20;52.70;;;;;;5029601;28;20114;-61
2021/01/01 06:29:41;;;;;;;1.30;1.00;;;19.10;52.70;;;;;;5027777;28;20676;-60
2021/01/01 06:32:09;;;;;;;1.52;1.05;;;19.10;52.60;;;;;;5027798;28;20400;-61
2021/01/01 06:34:34;;;;;;;1.30;0.90;;;19.10;52.70;;;;;;5039724;28;20037;-56
2021/01/01 06:37:00;;;;;;;1.02;0.80;;;19.10;52.60;;;;;;5030695;28;20040;-60
2021/01/01 06:39:35;;;;;;;1.52;0.80;;;19.10;52.70;;;;;;5046335;28;20420;-59
2021/01/01 06:42:01;;;;;;;1.02;0.73;;;19.10;52.70;;;;;;5040667;28;20690;-58
2021/01/01 06:44:41;;;;;;;1.25;0.82;;;19.10;52.60;;;;;;5045692;28;20025;-58
2021/01/01 06:47:30;;;;;;;0.95;0.80;;;19.10;52.70;;;;;;5027409;28;20099;-59
2021/01/01 06:49:56;;;;;;;1.05;0.80;;;19.10;52.70;;;;;;5026133;28;20030;-59
2021/01/01 06:52:21;;;;;;;1.20;0.90;;;19.10;52.70;;;;;;5027690;28;20072;-56
2021/01/01 06:54:58;;;;;;;1.17;0.90;;;19.10;52.70;;;;;;5040978;28;20037;-58
2021/01/01 06:57:28;;;;;;;1.25;0.80;;;19.10;52.70;;;;;;5043793;28;20123;-60
2021/01/01 06:59:56;;;;;;;1.38;0.80;;;19.10;52.70;;;;;;5024261;28;20476;-59
2021/01/01 07:02:29;;;;;;;1.20;0.90;;;19.10;52.70;;;;;;5029449;28;20033;-61
2021/01/01 07:04:56;;;;;;;1.23;1.00;;;19.10;52.70;;;;;;5026652;28;20021;-60
2021/01/01 07:07:44;;;;;;;2.42;0.98;;;19.10;52.70;;;;;;5031142;28;20417;-60
2021/01/01 07:10:15;;;;;;;1.35;0.77;;;19.10;52.70;;;;;;5026989;28;20042;-58
2021/01/01 07:12:41;;;;;;;1.13;0.70;;;19.10;52.70;;;;;;5034807;28;20180;-58
2021/01/01 07:15:33;;;;;;;1.70;1.13;;;19.10;52.70;;;;;;5042803;28;20104;-59
2021/01/01 07:17:59;;;;;;;1.08;0.80;;;19.10;52.80;;;;;;5031517;28;20472;-56
2021/01/01 07:20:24;;;;;;;1.42;0.90;;;19.10;52.70;;;;;;5030036;28;20034;-58
2021/01/01 07:22:57;;;;;;;1.00;0.85;;;19.10;52.70;;;;;;5041818;28;20104;-56
2021/01/01 07:25:34;;;;;;;1.10;0.75;;;19.10;52.80;;;;;;5033477;28;20415;-56
2021/01/01 07:28:01;;;;;;;1.00;0.90;;;19.10;52.80;;;;;;5034484;28;20046;-59
2021/01/01 07:30:31;;;;;;;1.27;0.80;;;19.00;52.70;;;;;;5049084;28;20040;-61
2021/01/01 07:32:56;;;;;;;;;;;19.10;52.70;;;;;;5035502;28;20111;-57
2021/01/01 07:35:22;;;;;;;0.90;0.80;;;19.00;52.70;;;;;;5030040;28;19983;-61
2021/01/01 07:37:48;;;;;;;1.02;0.80;;;19.00;52.70;;;;;;5030987;28;20044;-60
2021/01/01 07:40:14;;;;;;;0.73;0.70;;;19.10;52.80;;;;;;5030743;28;20045;-58
2021/01/01 07:42:53;;;;;;;1.92;0.80;;;19.10;52.80;;;;;;5033675;28;20115;-59
2021/01/01 07:45:19;;;;;;;1.48;1.00;;;19.10;52.80;;;;;;5030081;28;20428;-58
2021/01/01 07:47:46;;;;;;;1.25;0.90;;;19.10;52.70;;;;;;5041581;28;20040;-58
2021/01/01 07:50:16;;;;;;;1.00;0.90;;;19.00;52.70;;;;;;5031072;28;20117;-57
2021/01/01 07:52:43;;;;;;;1.00;0.82;;;19.10;52.80;;;;;;5031624;28;20056;-57
2021/01/01 07:55:09;;;;;;;1.42;0.90;;;19.10;52.80;;;;;;5030268;28;20391;-57
2021/01/01 07:57:36;;;;;;;0.95;0.80;;;19.00;52.70;;;;;;5030620;28;20041;-60
2021/01/01 08:00:04;;;;;;;1.02;0.82;;;19.00;52.70;;;;;;5044788;28;20432;-62
2021/01/01 08:02:30;;;;;;;1.40;0.85;;;19.00;52.70;;;;;;5031025;28;20072;-58
2021/01/01 08:04:56;;;;;;;1.10;0.80;;;19.00;52.70;;;;;;5029167;28;20022;-58
2021/01/01 08:07:22;;;;;;;1.25;0.90;;;19.00;52.70;;;;;;5027575;28;20453;-61
2021/01/01 08:09:48;;;;;;;0.93;0.70;;;19.00;52.70;;;;;;5030221;28;20041;-58
2021/01/01 08:12:13;;;;;;;1.20;0.80;;;19.00;52.70;;;;;;5038031;28;20029;-55
2021/01/01 08:14:48;;;;;;;0.77;0.70;;;19.00;52.80;;;;;;5026646;28;20514;-58
2021/01/01 08:17:21;;;;;;;1.05;0.90;;;19.00;52.70;;;;;;5025703;28;20025;-58
2021/01/01 08:19:47;;;;;;;1.33;0.80;;;19.00;52.70;;;;;;5039574;28;20450;-59
2021/01/01 08:22:16;;;;;;;1.10;0.80;;;19.00;52.80;;;;;;5032553;28;20242;-58
2021/01/01 08:24:43;;;;;;;1.17;0.80;;;19.00;52.80;;;;;;5031818;28;20052;-55
2021/01/01 08:27:11;;;;;;;1.13;0.80;;;19.00;52.80;;;;;;5033221;28;20037;-60
2021/01/01 08:29:38;;;;;;;1.30;0.90;;;19.00;52.80;;;;;;5030803;28;20176;-56
2021/01/01 08:32:05;;;;;;;0.95;0.73;;;19.00;52.80;;;;;;5036761;28;20028;-58
2021/01/01 08:34:31;;;;;;;1.35;0.90;;;19.00;52.80;;;;;;5029153;28;20025;-62
2021/01/01 08:36:57;;;;;;;1.30;0.90;;;19.00;52.80;;;;;;5034018;28;20163;-58
2021/01/01 08:39:24;;;;;;;1.10;0.80;;;19.00;52.80;;;;;;5032500;28;20029;-59
2021/01/01 08:41:50;;;;;;;1.02;0.80;;;18.90;52.70;;;;;;5034295;28;20074;-61
2021/01/01 08:44:16;;;;;;;1.10;0.80;;;19.00;52.80;;;;;;5029735;28;20216;-59
2021/01/01 08:46:43;;;;;;;0.90;0.70;;;18.90;52.70;;;;;;5039103;28;20029;-61
2021/01/01 08:49:18;;;;;;;0.80;0.70;;;19.00;52.80;;;;;;5031961;28;20033;-62
2021/01/01 08:51:45;;;;;;;1.33;0.90;;;19.00;52.80;;;;;;5032084;28;20434;-60
2021/01/01 08:54:23;;;;;;;1.05;0.80;;;18.90;52.70;;;;;;5034959;28;20108;-59
2021/01/01 08:56:57;;;;;;;1.55;0.88;;;18.90;52.70;;;;;;5029648;28;20021;-61
2021/01/01 08:59:23;;;;;;;1.30;0.82;;;18.90;52.70;;;;;;5047634;28;20036;-59
2021/01/01 09:01:49;;;;;;;1.75;0.80;;;18.90;52.70;;;;;;5037570;28;20026;-62
2021/01/01 09:04:15;;;;;;;1.38;0.80;;;18.90;52.70;;;;;;5033810;28;20128;-60
2021/01/01 09:06:56;;;;;;;1.00;0.80;;;19.00;52.80;;;;;;5027245;28;20029;-61
2021/01/01 09:09:29;;;;;;;0.93;0.80;;;18.90;52.70;;;;;;5046746;28;20021;-59
2021/01/01 09:12:20;;;;;;;2.67;1.00;;;19.00;52.80;;;;;;5034540;28;20033;-59
2021/01/01 09:14:55;;;;;;;1.15;1.00;;;18.90;52.80;;;;;;5038275;28;21536;-59
2021/01/01 09:17:26;;;;;;;1.33;0.90;;;18.90;52.80;;;;;;5038407;28;20036;-60
2021/01/01 09:20:04;;;;;;;0.98;0.80;;;18.90;52.80;;;;;;5047330;28;20123;-60
2021/01/01 09:22:32;;;;;;;1.20;0.80;;;18.90;52.80;;;;;;5029124;28;20044;-59
2021/01/01 09:25:21;;;;;;;0.93;0.70;;;18.90;52.70;;;;;;5028099;28;20827;-61
2021/01/01 09:27:48;;;;;;;1.03;0.80;;;18.90;52.80;;;;;;5027882;28;20038;-59
2021/01/01 09:30:21;;;;;;;1.20;0.80;;;18.90;52.80;;;;;;5043398;28;20329;-61
2021/01/01 09:32:49;;;;;;;0.75;0.70;;;18.90;52.80;;;;;;5036314;28;20127;-61
2021/01/01 09:35:16;;;;;;;0.98;0.80;;;18.90;52.80;;;;;;5028634;28;20103;-60
2021/01/01 09:37:51;;;;;;;0.60;0.60;;;18.90;52.80;;;;;;5026644;28;20029;-61
2021/01/01 09:40:19;;;;;;;1.58;0.77;;;18.90;52.80;;;;;;5030822;28;20040;-64
2021/01/01 09:42:45;;;;;;;1.10;0.80;;;18.90;52.80;;;;;;5029676;28;20033;-63
2021/01/01 09:45:12;;;;;;;1.00;0.80;;;18.90;52.80;;;;;;5032942;28;20029;-62
2021/01/01 09:47:38;;;;;;;1.33;0.90;;;18.90;52.80;;;;;;5031860;28;20102;-61
2021/01/01 09:50:05;;;;;;;1.15;0.80;;;18.90;52.80;;;;;;5032074;28;20017;-60
2021/01/01 09:52:31;;;;;;;0.90;0.70;;;18.90;52.80;;;;;;5039218;28;20305;-59
2021/01/01 09:54:57;;;;;;;1.10;0.80;;;18.90;52.80;;;;;;5039835;28;20032;-59
2021/01/01 09:57:22;;;;;;;0.70;0.70;;;18.90;52.80;;;;;;5023765;28;20468;-63
2021/01/01 09:59:48;;;;;;;1.50;0.90;;;18.90;52.80;;;;;;5043265;28;20376;-62
2021/01/01 10:02:14;;;;;;;1.33;0.90;;;18.80;52.80;;;;;;5029678;28;20124;-64
2021/01/01 10:04:39;;;;;;;1.10;0.80;;;18.90;52.80;;;;;;5039327;28;20061;-60
2021/01/01 10:07:05;;;;;;;1.15;0.88;;;18.90;52.80;;;;;;5034609;28;20029;-60
2021/01/01 10:09:30;;;;;;;0.95;0.70;;;18.80;52.80;;;;;;5037870;28;20041;-61
2021/01/01 10:12:04;;;;;;;1.02;0.77;;;18.90;52.80;;;;;;5038459;28;20512;-59
2021/01/01 10:14:31;;;;;;;1.42;0.80;;;18.90;52.90;;;;;;5043397;28;20032;-60
2021/01/01 10:16:56;;;;;;;1.23;0.80;;;18.90;52.90;;;;;;5035454;28;20017;-61
2021/01/01 10:19:22;;;;;;;0.85;0.75;;;18.80;52.80;;;;;;5037609;28;20337;-59
2021/01/01 10:21:47;;;;;;;1.15;0.80;;;18.90;52.80;;;;;;5032235;28;20036;-60
2021/01/01 10:24:13;;;;;;;1.20;0.70;;;18.90;52.80;;;;;;5034307;28;20033;-65
2021/01/01 10:26:39;;;;;;;0.90;0.80;;;18.80;52.80;;;;;;5035397;28;20667;-64
2021/01/01 10:29:04;;;;;;;1.10;0.80;;;18.90;52.90;;;;;;5032676;28;20582;-61
2021/01/01 10:31:33;;;;;;;1.00;0.70;;;18.80;52.80;;;;;;5027159;28;20056;-62
2021/01/01 10:33:58;;;;;;;1.15;0.85;;;18.80;52.80;;;;;;5027548;28;20053;-58
2021/01/01 10:36:24;;;;;;;1.45;0.80;;;18.80;52.80;;;;;;5037471;28;20072;-61
2021/01/01 10:38:50;;;;;;;1.13;0.80;;;18.90;52.90;;;;;;5032372;28;20025;-61
2021/01/01 10:41:15;;;;;;;1.00;0.80;;;18.90;52.90;;;;;;5036609;28;20059;-64
2021/01/01 10:43:41;;;;;;;0.95;0.75;;;18.80;52.80;;;;;;5033337;28;20047;-61
2021/01/01 10:46:07;;;;;;;1.10;0.80;;;18.90;52.90;;;;;;5028714;28;20033;-60
2021/01/01 10:48:33;;;;;;;1.83;0.80;;;18.80;52.80;;;;;;5039075;28;20036;-61
2021/01/01 10:50:58;;;;;;;0.90;0.80;;;18.80;52.90;;;;;;5033658;28;20048;-59
2021/01/01 10:53:24;;;;;;;1.13;0.80;;;18.80;52.90;;;;;;5037787;28;20042;-60
2021/01/01 10:55:50;;;;;;;0.80;0.70;;;18.80;52.90;;;;;;5037925;28;20070;-60
2021/01/01 10:58:25;;;;;;;1.20;0.90;;;18.80;52.90;;;;;;5037796;28;20345;-65
2021/01/01 11:00:54;;;;;;;1.00;0.90;;;18.80;52.90;;;;;;5037361;28;20029;-59
2021/01/01 11:03:20;;;;;;;1.05;0.80;;;18.80;53.00;;;;;;5040602;28;20604;-60
2021/01/01 11:05:46;;;;;;;1.48;0.85;;;18.80;52.90;;;;;;5035948;28;20041;-61
2021/01/01 11:08:12;;;;;;;1.02;0.77;;;18.80;52.90;;;;;;5041373;28;20490;-59
2021/01/01 11:10:38;;;;;;;1.10;0.80;;;18.80;53.00;;;;;;5037126;28;20038;-61
2021/01/01 11:13:05;;;;;;;1.10;0.65;;;18.80;53.00;;;;;;5031127;28;20029;-59
2021/01/01 12:22:01;;;;;;;1.50;1.10;;;18.80;52.90;;;;;;5013324;28;20040;-65
2021/01/01 12:26:59;;;;;;;1.88;1.10;;;18.80;52.80;;;;;;5029569;28;20037;-62
2021/01/01 12:29:26;;;;;;;2.00;1.17;;;18.80;52.80;;;;;;5031998;28;20394;-59
2021/01/01 12:31:52;;;;;;;1.58;1.10;;;18.80;52.90;;;;;;5031752;28;20026;-62
2021/01/01 12:34:18;;;;;;;1.73;1.25;;;18.80;52.80;;;;;;5038868;28;20083;-62
2021/01/01 12:36:44;;;;;;;2.28;1.10;;;18.70;52.80;;;;;;5040302;28;20514;-62
2021/01/01 12:39:10;;;;;;;1.73;1.20;;;18.70;52.80;;;;;;5048381;28;20017;-62
2021/01/01 12:41:36;;;;;;;1.80;1.17;;;18.80;52.80;;;;;;5046232;28;20037;-63
2021/01/01 12:44:02;;;;;;;1.40;1.00;;;18.80;52.80;;;;;;5041578;28;20083;-60
2021/01/01 12:46:28;;;;;;;1.70;1.10;;;18.80;52.80;;;;;;5037936;28;20429;-60
2021/01/01 12:48:54;;;;;;;1.50;1.00;;;18.70;52.80;;;;;;5027032;28;20039;-60
2021/01/01 12:51:19;;;;;;;1.90;1.10;;;18.70;52.80;;;;;;5032737;28;20029;-63
2021/01/01 12:53:45;;;;;;;1.40;1.02;;;18.70;52.80;;;;;;5029425;28;20045;-62
2021/01/01 12:56:11;;;;;;;2.00;1.20;;;18.70;52.80;;;;;;5045711;28;20029;-63
2021/01/01 12:58:37;;;;;;;2.47;1.17;;;18.80;52.90;;;;;;5040073;28;20033;-59
2021/01/01 13:01:03;;;;;;;2.78;1.10;;;18.70;52.80;;;;;;5048279;28;20383;-59
2021/01/01 13:03:28;;;;;;;1.38;0.90;;;18.70;52.80;;;;;;5034165;28;20029;-60
2021/01/01 13:05:54;;;;;;;1.75;1.15;;;18.70;52.80;;;;;;5034505;28;20024;-60
2021/01/01 13:08:20;;;;;;;2.03;1.08;;;18.80;52.90;;;;;;5043048;28;20037;-62
2021/01/01 13:10:45;;;;;;;1.50;1.10;;;18.70;52.90;;;;;;5032426;28;20379;-60
2021/01/01 13:13:11;;;;;;;1.50;1.10;;;18.70;52.80;;;;;;5037837;28;20108;-63
2021/01/01 13:15:36;;;;;;;1.52;0.93;;;18.80;53.40;;;;;;5035282;28;20025;-63
2021/01/01 13:18:02;;;;;;;1.65;0.95;;;18.70;52.80;;;;;;5027310;28;20026;-62
2021/01/01 13:20:27;;;;;;;1.55;1.00;;;18.70;52.90;;;;;;5037073;28;20109;-60
2021/01/01 13:22:53;;;;;;;1.55;1.10;;;18.70;52.90;;;;;;5024508;28;20200;-61
2021/01/01 13:25:20;;;;;;;1.55;1.00;;;18.70;53.00;;;;;;5029009;28;20030;-64
2021/01/01 13:27:46;;;;;;;1.52;1.05;;;18.70;52.90;;;;;;5026389;28;20596;-61
2021/01/01 13:30:22;;;;;;;1.67;1.00;;;18.70;52.80;;;;;;5032578;28;20067;-65
2021/01/01 13:32:47;;;;;;;1.25;0.90;;;18.70;52.90;;;;;;5029607;28;20136;-61
2021/01/01 13:35:13;;;;;;;1.92;1.00;;;18.70;52.80;;;;;;5029109;28;20117;-63
2021/01/01 13:37:39;;;;;;;1.45;0.93;;;18.70;52.90;;;;;;5031667;28;20036;-63
2021/01/01 13:40:06;;;;;;;1.73;1.00;;;18.70;52.80;;;;;;5028629;28;20512;-60
2021/01/01 13:42:32;;;;;;;1.80;1.05;;;18.70;52.80;;;;;;5037205;28;20480;-62
2021/01/01 13:44:58;;;;;;;1.55;1.08;;;18.70;52.90;;;;;;5037807;28;20029;-62
2021/01/01 13:47:24;;;;;;;1.40;0.93;;;18.70;52.90;;;;;;5033250;28;20062;-62
2021/01/01 13:49:50;;;;;;;1.75;1.05;;;18.70;52.90;;;;;;5029017;28;20033;-65
2021/01/01 13:52:17;;;;;;;2.63;1.20;;;18.70;52.90;;;;;;5031770;28;20040;-62
2021/01/01 13:54:43;;;;;;;1.52;1.08;;;18.70;52.90;;;;;;5028503;28;20076;-61
2021/01/01 13:57:08;;;;;;;1.88;1.00;;;18.70;52.90;;;;;;5028140;28;20373;-66
2021/01/01 13:59:34;;;;;;;1.35;1.00;;;18.70;52.90;;;;;;5029700;28;20105;-62
2021/01/01 14:02:00;;;;;;;1.65;1.15;;;18.70;52.90;;;;;;5033489;28;20032;-62